Time;durP1;ratioP1;P1;durP2;ratioP2;P2;SDS_P1;SDS_P2;PMS_P1;PMS_P2;Temp;Humidity;BMP_temperature;BMP_pressure;BME280_temperature;BME280_humidity;BME280_pressure;Samples;Min_cycle;Max_cycle;Signal;HPM_P1;HPM_P2
2023/04/24 00:02:46;;;;;;;12.02;5.57;;;;;;;11.27;100.00;94505.75;10419619;28;20279;-70
2023/04/24 00:07:46;;;;;;;14.75;6.15;;;;;;;11.28;100.00;94492.00;10419229;28;20032;-70
2023/04/24 00:12:47;;;;;;;18.83;6.53;;;;;;;11.29;100.00;94492.84;10419205;28;20025;-70
2023/04/24 00:17:47;;;;;;;13.35;7.05;;;;;;;11.01;100.00;94473.72;10396409;28;20362;-72
2023/04/24 00:22:48;;;;;;;12.20;6.83;;;;;;;10.85;100.00;94477.59;10419306;28;20534;-71
2023/04/24 00:27:48;;;;;;;9.50;6.45;;;;;;;10.71;100.00;94472.84;10418717;28;20271;-70
2023/04/24 00:32:49;;;;;;;9.17;6.40;;;;;;;10.57;100.00;94464.63;10418404;28;20043;-70
2023/04/24 00:37:49;;;;;;;14.00;6.95;;;;;;;10.35;100.00;94469.63;10418565;28;20326;-70
2023/04/24 00:42:50;;;;;;;10.90;6.72;;;;;;;10.27;100.00;94477.16;10417616;28;20479;-71
2023/04/24 00:47:52;;;;;;;15.75;6.10;;;;;;;10.18;100.00;94470.75;10417903;28;20573;-70
2023/04/24 00:52:52;;;;;;;11.05;5.65;;;;;;;10.13;100.00;94478.84;10418028;28;20341;-69
2023/04/24 00:57:53;;;;;;;11.30;6.17;;;;;;;10.13;100.00;94472.66;10417400;28;20036;-70
2023/04/24 01:02:54;;;;;;;9.75;6.63;;;;;;;10.02;100.00;94474.56;10417715;28;20754;-70
2023/04/24 01:07:54;;;;;;;11.35;6.50;;;;;;;9.57;100.00;94485.22;10417451;28;20048;-70
2023/04/24 01:12:55;;;;;;;16.75;7.60;;;;;;;9.75;100.00;94486.50;10399540;28;20036;-70
2023/04/24 01:17:56;;;;;;;16.92;7.82;;;;;;;9.96;100.00;94473.00;10399657;28;20025;-70
2023/04/24 01:22:57;;;;;;;12.10;6.95;;;;;;;10.01;100.00;94468.41;10417145;28;20025;-70
2023/04/24 01:27:58;;;;;;;10.50;6.43;;;;;;;10.04;100.00;94461.69;10417532;28;20024;-70
2023/04/24 01:32:58;;;;;;;11.70;7.32;;;;;;;10.09;100.00;94457.09;10418087;28;20519;-70
2023/04/24 01:37:59;;;;;;;16.75;6.75;;;;;;;10.10;100.00;94449.84;10417175;28;20057;-70
2023/04/24 01:42:59;;;;;;;10.20;7.43;;;;;;;10.07;100.00;94443.16;10420852;28;20831;-70
2023/04/24 01:48:00;;;;;;;11.57;6.85;;;;;;;10.03;100.00;94444.78;10424667;28;20446;-70
2023/04/24 01:53:01;;;;;;;8.93;6.20;;;;;;;10.03;100.00;94435.91;10424623;28;20396;-71
2023/04/24 01:58:02;;;;;;;12.05;7.05;;;;;;;9.98;100.00;94438.66;10424582;28;20036;-71
2023/04/24 02:03:02;;;;;;;12.57;8.20;;;;;;;9.90;100.00;94438.13;10406779;28;20025;-71
2023/04/24 02:08:03;;;;;;;9.38;7.28;;;;;;;9.63;100.00;94438.53;10424529;28;20029;-71
2023/04/24 02:13:04;;;;;;;14.48;7.63;;;;;;;9.57;100.00;94432.38;10406124;28;20040;-71
2023/04/24 02:18:06;;;;;;;15.05;8.70;;;;;;;9.48;100.00;94427.84;10424199;28;20021;-70
2023/04/24 02:23:07;;;;;;;15.75;8.68;;;;;;;9.30;100.00;94429.25;10423586;28;20550;-69
2023/04/24 02:28:07;;;;;;;14.07;8.93;;;;;;;9.10;100.00;94430.91;10423176;28;20051;-69
2023/04/24 02:33:07;;;;;;;15.60;8.63;;;;;;;9.12;100.00;94433.31;10422948;28;20052;-72
2023/04/24 02:38:08;;;;;;;18.93;9.63;;;;;;;9.04;100.00;94426.59;10423019;28;20303;-69
2023/04/24 02:43:09;;;;;;;16.10;9.57;;;;;;;9.04;100.00;94421.25;10423404;28;20832;-70
2023/04/24 02:48:09;;;;;;;14.13;8.32;;;;;;;9.01;100.00;94414.53;10422157;28;20029;-71
2023/04/24 02:53:10;;;;;;;18.03;8.97;;;;;;;8.91;100.00;94411.88;10422543;28;20112;-69
2023/04/24 02:58:10;;;;;;;17.90;9.55;;;;;;;8.81;100.00;94410.03;10422576;28;20495;-69
2023/04/24 03:03:11;;;;;;;17.65;9.93;;;;;;;8.83;100.00;94409.75;10421150;28;20027;-70
2023/04/24 03:08:11;;;;;;;16.23;9.80;;;;;;;8.72;100.00;94414.31;10420024;28;20456;-70
2023/04/24 03:13:11;;;;;;;14.93;9.37;;;;;;;8.47;100.00;94423.16;10403456;28;20048;-70
2023/04/24 03:18:13;;;;;;;14.18;9.18;;;;;;;8.23;100.00;94422.84;10392668;28;20275;-70
2023/04/24 03:23:14;;;;;;;15.43;10.45;;;;;;;7.97;100.00;94431.63;10420951;28;20036;-70
2023/04/24 03:28:14;;;;;;;17.55;10.77;;;;;;;7.82;100.00;94426.25;10415440;28;20033;-70
2023/04/24 03:33:15;;;;;;;15.00;9.55;;;;;;;7.88;100.00;94427.84;10430741;28;20523;-70
2023/04/24 03:38:15;;;;;;;14.63;9.18;;;;;;;7.90;100.00;94425.72;10424168;28;20049;-70
2023/04/24 03:43:16;;;;;;;14.30;9.93;;;;;;;7.89;100.00;94418.75;10419484;28;20102;-70
2023/04/24 03:48:16;;;;;;;19.50;10.63;;;;;;;8.03;100.00;94422.53;10421756;28;20115;-70
2023/04/24 03:53:16;;;;;;;18.40;9.80;;;;;;;8.06;100.00;94429.22;10406011;28;20032;-70
2023/04/24 03:58:17;;;;;;;23.07;11.00;;;;;;;8.26;100.00;94433.00;10405819;28;20094;-70
2023/04/24 04:03:18;;;;;;;19.98;11.80;;;;;;;8.46;100.00;94426.91;10419441;28;20338;-71
2023/04/24 04:08:18;;;;;;;15.32;10.73;;;;;;;8.57;100.00;94422.34;10417290;28;20527;-71
2023/04/24 04:13:18;;;;;;;25.73;12.27;;;;;;;8.53;100.00;94438.97;10417598;28;20553;-71
2023/04/24 04:18:19;;;;;;;23.73;13.30;;;;;;;8.81;100.00;94438.72;10424292;28;20263;-71
2023/04/24 04:23:19;;;;;;;21.83;13.40;;;;;;;9.05;100.00;94436.25;10417010;28;20037;-70
2023/04/24 04:28:21;;;;;;;22.13;12.52;;;;;;;9.26;100.00;94438.91;10419757;28;20491;-70
2023/04/24 04:33:22;;;;;;;23.33;12.10;;;;;;;9.32;100.00;94433.25;10391456;28;20063;-70
2023/04/24 04:38:22;;;;;;;20.50;12.45;;;;;;;9.51;100.00;94432.66;10401247;28;20051;-70
2023/04/24 04:43:24;;;;;;;18.52;10.65;;;;;;;9.76;100.00;94431.75;10416191;28;20036;-70
2023/04/24 04:48:24;;;;;;;19.83;10.40;;;;;;;9.97;100.00;94445.88;10397076;28;20028;-71
2023/04/24 04:53:25;;;;;;;18.80;10.73;;;;;;;10.21;100.00;94458.66;10415913;28;20468;-71
2023/04/24 04:58:26;;;;;;;20.58;11.05;;;;;;;10.17;100.00;94460.28;10418225;28;20278;-72
2023/04/24 05:03:26;;;;;;;15.57;10.27;;;;;;;9.74;100.00;94461.56;10395334;28;20030;-71
2023/04/24 05:08:27;;;;;;;17.08;9.27;;;;;;;9.96;100.00;94460.38;10397339;28;20024;-71
2023/04/24 05:13:27;;;;;;;19.05;9.73;;;;;;;10.14;100.00;94452.78;10416256;28;20025;-72
2023/04/24 05:18:28;;;;;;;21.08;10.55;;;;;;;10.19;100.00;94461.63;10419888;28;20029;-71
2023/04/24 05:23:28;;;;;;;18.50;9.80;;;;;;;10.36;100.00;94463.16;10423556;28;20031;-71
2023/04/24 05:28:29;;;;;;;23.97;8.67;;;;;;;10.57;100.00;94458.47;10393934;28;20263;-70
2023/04/24 05:33:29;;;;;;;18.48;10.05;;;;;;;10.91;100.00;94457.66;10398143;28;20315;-71
2023/04/24 05:38:30;;;;;;;17.67;8.27;;;;;;;11.22;100.00;94462.75;10422385;28;20913;-71
2023/04/24 05:43:30;;;;;;;20.73;8.30;;;;;;;11.44;100.00;94463.09;10426537;28;20569;-71
2023/04/24 05:48:31;;;;;;;11.57;7.47;;;;;;;12.25;100.00;94470.53;10426515;28;20332;-71
2023/04/24 05:53:31;;;;;;;20.05;7.05;;;;;;;12.97;100.00;94464.06;10426296;28;20025;-71
2023/04/24 05:58:32;;;;;;;23.50;10.38;;;;;;;13.50;100.00;94462.13;10425528;28;20033;-71
2023/04/24 06:03:33;;;;;;;25.70;7.53;;;;;;;14.30;100.00;94460.00;10425543;28;20035;-71
2023/04/24 06:08:34;;;;;;;24.60;8.68;;;;;;;14.67;94.02;94452.72;10422519;28;20351;-72
2023/04/24 06:13:34;;;;;;;16.88;8.93;;;;;;;15.10;86.44;94450.63;10425184;28;20032;-71
2023/04/24 06:18:35;;;;;;;15.50;8.10;;;;;;;15.39;87.41;94450.16;10426874;28;20514;-71
2023/04/24 06:23:36;;;;;;;18.52;6.28;;;;;;;16.43;75.03;94445.47;10407297;28;20291;-72
2023/04/24 06:28:36;;;;;;;17.23;7.45;;;;;;;17.32;62.65;94451.34;10375174;28;20033;-72
2023/04/24 06:33:36;;;;;;;14.33;8.03;;;;;;;18.40;60.82;94446.78;10407025;28;20032;-71
2023/04/24 06:38:37;;;;;;;13.45;6.32;;;;;;;18.41;56.58;94441.00;10406519;28;20303;-71
2023/04/24 06:43:37;;;;;;;22.42;8.15;;;;;;;18.78;57.25;94443.13;10424803;28;20035;-72
2023/04/24 06:48:39;;;;;;;27.33;8.20;;;;;;;19.39;55.24;94444.56;10406312;28;20033;-73
2023/04/24 06:53:39;;;;;;;15.60;7.57;;;;;;;19.74;55.86;94455.09;10424239;28;20025;-73
2023/04/24 06:58:40;;;;;;;10.60;6.90;;;;;;;19.41;51.58;94447.72;10406162;28;20037;-72
2023/04/24 07:03:40;;;;;;;15.50;7.45;;;;;;;18.94;55.03;94440.66;10424014;28;20267;-72
2023/04/24 07:08:41;;;;;;;13.20;7.22;;;;;;;17.53;59.69;94439.81;10424424;28;20021;-71
2023/04/24 07:13:42;;;;;;;15.88;8.45;;;;;;;16.20;69.10;94440.13;10423290;28;20124;-71
2023/04/24 07:18:42;;;;;;;12.65;7.40;;;;;;;16.60;71.50;94431.88;10422585;28;20076;-71
2023/04/24 07:23:43;;;;;;;17.42;8.45;;;;;;;17.70;64.66;94428.06;10405377;28;20021;-72
2023/04/24 07:28:43;;;;;;;12.80;7.95;;;;;;;18.06;63.83;94434.97;10422944;28;20028;-72
2023/04/24 07:33:44;;;;;;;17.92;7.00;;;;;;;19.98;50.52;94418.88;10422622;28;20029;-72
2023/04/24 07:38:45;;;;;;;11.10;6.68;;;;;;;21.84;46.20;94399.97;10421584;28;20044;-72
2023/04/24 07:43:46;;;;;;;15.52;6.38;;;;;;;23.67;41.35;94388.56;10420912;28;20052;-73
2023/04/24 07:48:47;;;;;;;17.10;6.33;;;;;;;24.29;38.50;94395.84;10421997;28;20052;-72
2023/04/24 07:53:48;;;;;;;13.13;6.57;;;;;;;24.71;37.13;94394.88;10413253;28;20315;-72
2023/04/24 07:58:48;;;;;;;9.17;3.83;;;;;;;26.35;35.36;94377.69;10411999;28;20036;-72
2023/04/24 08:03:49;;;;;;;8.98;4.18;;;;;;;27.43;34.63;94374.69;10405478;28;20032;-71
2023/04/24 08:08:49;;;;;;;11.83;4.33;;;;;;;27.66;32.67;94370.78;10402941;28;20361;-72
2023/04/24 08:13:50;;;;;;;15.93;5.85;;;;;;;26.77;35.17;94378.38;10406565;28;20041;-72
2023/04/24 08:18:51;;;;;;;11.00;5.45;;;;;;;28.26;32.06;94360.97;10400868;28;20693;-72
2023/04/24 08:23:51;;;;;;;10.10;4.57;;;;;;;29.17;31.49;94353.25;10398864;28;20017;-71
2023/04/24 08:28:52;;;;;;;9.27;4.30;;;;;;;28.70;30.87;94351.41;10399732;28;20029;-72
2023/04/24 08:33:53;;;;;;;8.25;3.92;;;;;;;29.03;29.05;94345.78;10383126;28;20429;-73
2023/04/24 08:38:53;;;;;;;5.63;4.07;;;;;;;29.87;29.03;94338.63;10400413;28;20054;-71
2023/04/24 08:43:54;;;;;;;4.68;3.33;;;;;;;29.75;28.83;94332.34;10400256;28;20679;-71
2023/04/24 08:48:56;;;;;;;6.07;3.58;;;;;;;29.89;29.58;94339.78;10406350;28;20120;-73
2023/04/24 08:53:57;;;;;;;15.75;4.07;;;;;;;27.54;30.70;94327.78;10401985;28;20083;-77
2023/04/24 08:58:58;;;;;;;9.68;3.97;;;;;;;27.82;32.74;94320.72;10413523;28;20041;-81
2023/04/24 09:04:03;;;;;;;9.65;3.47;;;;;;;28.90;29.93;94317.75;10426713;28;20163;-86
2023/04/24 09:09:05;;;;;;;9.10;3.60;;;;;;;29.71;30.15;94305.84;10423263;28;20117;-83
2023/04/24 09:14:09;;;;;;;6.88;3.63;;;;;;;28.99;30.81;94301.53;10417685;28;20052;-84
2023/04/24 09:19:10;;;;;;;6.45;2.85;;;;;;;26.76;33.79;94307.84;10388669;28;20051;-76
2023/04/24 09:24:22;;;;;;;11.40;4.30;;;;;;;27.16;33.26;94299.72;10405779;28;20075;-77
2023/04/24 09:29:22;;;;;;;9.88;3.40;;;;;;;26.65;33.91;94290.47;10418415;28;20487;-80
2023/04/24 09:34:25;;;;;;;6.80;3.90;;;;;;;25.75;34.31;94290.69;10387064;28;20694;-86
2023/04/24 09:39:26;;;;;;;7.18;3.90;;;;;;;24.24;34.99;94281.63;10410377;28;20508;-82
2023/04/24 09:44:27;;;;;;;9.15;3.78;;;;;;;25.30;36.52;94267.88;10410036;28;20053;-78
2023/04/24 09:49:30;;;;;;;7.30;3.80;;;;;;;27.79;33.66;94262.31;10408887;28;20511;-76
2023/04/24 09:54:31;;;;;;;7.68;3.42;;;;;;;28.05;32.98;94259.53;10406388;28;20021;-78
2023/04/24 09:59:46;;;;;;;6.07;3.38;;;;;;;29.44;31.02;94253.84;10409901;28;20029;-78
2023/04/24 10:04:58;;;;;;;8.40;2.85;;;;;;;30.10;27.97;94244.59;10411381;28;20095;-75
2023/04/24 10:09:59;;;;;;;3.97;2.60;;;;;;;31.12;27.52;94238.63;10409505;28;20396;-75
2023/04/24 10:15:01;;;;;;;5.07;2.67;;;;;;;-146.07;100.00;70291.31;10413333;28;20090;-76
2023/04/24 10:20:02;;;;;;;7.57;2.78;;;;;;;-146.07;100.00;70291.31;10389980;28;20052;-74
2023/04/24 10:25:05;;;;;;;11.30;2.97;;;;;;;-146.07;100.00;70291.31;10411852;28;20059;-74
2023/04/24 10:30:07;;;;;;;4.78;2.97;;;;;;;32.83;26.29;94226.97;10411063;28;20028;-73
2023/04/24 10:35:09;;;;;;;8.52;2.95;;;;;;;32.26;27.29;94198.31;10415430;28;20377;-73
2023/04/24 10:40:10;;;;;;;7.80;2.75;;;;;;;34.07;24.50;94185.44;10410661;28;20599;-73
2023/04/24 10:45:22;;;;;;;6.57;2.58;;;;;;;34.40;23.71;94181.81;10382620;28;20036;-74
2023/04/24 10:50:22;;;;;;;5.95;2.45;;;;;;;34.40;23.71;94181.81;10407148;28;20396;-74
2023/04/24 10:55:42;;;;;;;3.53;2.30;;;;;;;29.08;26.36;94174.59;10406453;28;20025;-74
2023/04/24 11:00:46;;;;;;;6.35;2.72;;;;;;;27.80;29.62;94170.00;10388498;28;20124;-74
2023/04/24 11:05:55;;;;;;;5.85;3.00;;;;;;;27.28;30.74;94167.69;10408766;28;20025;-74
2023/04/24 11:11:17;;;;;;;7.55;3.75;;;;;;;25.83;31.84;94167.66;10394368;28;20021;-74
2023/04/24 11:16:21;;;;;;;11.70;3.45;;;;;;;24.82;32.56;94166.91;10408242;28;20145;-75
2023/04/24 11:21:22;;;;;;;6.38;3.60;;;;;;;24.14;34.31;94153.22;10410432;28;20059;-74
2023/04/24 11:26:30;;;;;;;6.50;3.60;;;;;;;23.34;36.23;94162.31;10410393;28;20036;-74
2023/04/24 11:31:41;;;;;;;7.78;4.15;;;;;;;20.92;40.49;94192.28;10385676;28;20569;-73
2023/04/24 11:36:48;;;;;;;5.75;3.85;;;;;;;20.82;42.41;94204.53;10406852;28;20094;-73
2023/04/24 11:41:52;;;;;;;10.60;4.47;;;;;;;19.82;46.41;94203.34;10409138;28;20033;-73
2023/04/24 11:46:55;;;;;;;6.93;2.85;;;;;;;19.31;48.89;94209.16;10408265;28;20031;-78
2023/04/24 11:51:56;;;;;;;5.45;3.00;;;;;;;19.30;54.58;94224.75;10411551;28;20082;-74
2023/04/24 11:56:57;;;;;;;7.35;3.63;;;;;;;18.39;65.99;94211.19;10418805;28;20025;-79
2023/04/24 12:01:57;;;;;;;4.00;3.42;;;;;;;18.01;60.51;94206.75;10397763;28;20042;-81
2023/04/24 12:07:01;;;;;;;6.53;3.50;;;;;;;18.00;63.61;94191.56;10406318;28;20021;-77
2023/04/24 12:12:02;;;;;;;9.55;3.83;;;;;;;18.00;59.84;94191.56;10424677;28;20597;-78
2023/04/24 12:17:02;;;;;;;6.88;3.90;;;;;;;18.35;63.12;94177.63;10408752;28;20028;-79
2023/04/24 12:22:05;;;;;;;6.88;3.95;;;;;;;18.41;62.70;94168.13;10413086;28;20056;-76
2023/04/24 12:27:06;;;;;;;5.60;3.55;;;;;;;18.30;67.87;94175.91;10411363;28;20024;-77
2023/04/24 12:32:16;;;;;;;6.57;3.57;;;;;;;18.35;67.16;94164.03;10406576;28;20047;-75
2023/04/24 12:37:17;;;;;;;4.13;3.38;;;;;;;18.02;64.76;94157.47;10409117;28;20298;-79
2023/04/24 12:47:24;;;;;;;7.40;3.80;;;;;;;16.38;79.42;94145.34;10406909;28;20171;-78
2023/04/24 12:52:26;;;;;;;4.28;3.22;;;;;;;16.65;76.98;94125.16;10408107;28;20036;-75
2023/04/24 12:57:29;;;;;;;8.10;3.90;;;;;;;16.74;77.30;94119.66;10400417;28;20059;-71
2023/04/24 13:02:33;;;;;;;5.63;3.75;;;;;;;16.60;73.58;94109.03;10416412;28;20041;-77
2023/04/24 13:07:34;;;;;;;6.45;4.07;;;;;;;16.86;77.09;94105.41;10407214;28;20621;-85
2023/04/24 13:12:35;;;;;;;9.68;4.32;;;;;;;17.01;83.65;94085.88;10390015;28;20439;-76
2023/04/24 13:17:35;;;;;;;7.80;3.58;;;;;;;17.11;86.52;94081.16;10402459;28;20021;-74
2023/04/24 13:22:36;;;;;;;8.95;4.22;;;;;;;17.02;83.87;94070.38;10383698;28;20720;-77
2023/04/24 13:27:39;;;;;;;6.93;4.38;;;;;;;16.79;89.78;94076.06;10406317;28;20064;-83
2023/04/24 13:32:40;;;;;;;5.88;4.03;;;;;;;16.90;83.89;94073.81;10407701;28;20094;-72
2023/04/24 13:37:40;;;;;;;8.20;4.63;;;;;;;17.31;83.88;94061.34;10410100;28;20098;-75
2023/04/24 13:42:41;;;;;;;5.37;4.60;;;;;;;18.07;82.58;94051.22;10411920;28;20276;-74
2023/04/24 13:47:41;;;;;;;12.47;4.60;;;;;;;18.36;79.74;94045.91;10412439;28;20298;-74
2023/04/24 13:52:41;;;;;;;8.47;4.50;;;;;;;18.35;78.63;94023.38;10412531;28;20363;-77
2023/04/24 13:57:42;;;;;;;7.15;4.25;;;;;;;18.74;78.30;94017.53;10415192;28;20271;-74
2023/04/24 14:02:42;;;;;;;5.10;3.83;;;;;;;19.01;84.59;94013.34;10415129;28;20029;-74
2023/04/24 14:07:43;;;;;;;13.10;4.77;;;;;;;19.33;79.95;94007.22;10417589;28;20295;-78
2023/04/24 14:12:43;;;;;;;7.82;4.60;;;;;;;18.82;80.34;94008.47;10392210;28;20784;-77
2023/04/24 14:17:44;;;;;;;7.82;4.30;;;;;;;18.98;76.84;94000.41;10410813;28;20025;-75
2023/04/24 14:22:44;;;;;;;5.25;4.13;;;;;;;18.77;88.35;94012.22;10413405;28;20463;-73
2023/04/24 14:27:45;;;;;;;3.63;3.13;;;;;;;18.40;85.84;94016.91;10414980;28;20442;-76
2023/04/24 14:32:46;;;;;;;4.57;2.80;;;;;;;18.18;75.29;93997.19;10420244;28;20028;-79
2023/04/24 14:37:48;;;;;;;5.93;3.53;;;;;;;17.81;79.50;93991.69;10420531;28;20629;-76
2023/04/24 14:42:48;;;;;;;8.88;3.70;;;;;;;17.87;84.33;93992.25;10419003;28;20052;-75
2023/04/24 14:47:48;;;;;;;5.00;4.13;;;;;;;17.84;86.05;93976.63;10418456;28;20060;-75
2023/04/24 14:52:49;;;;;;;7.97;3.45;;;;;;;17.21;81.74;93986.53;10418248;28;20106;-77
2023/04/24 14:57:50;;;;;;;6.97;4.60;;;;;;;16.88;88.38;93994.59;10414152;28;20422;-76
2023/04/24 15:02:50;;;;;;;6.68;4.78;;;;;;;16.65;88.18;94005.00;10401835;28;20032;-75
2023/04/24 15:07:51;;;;;;;6.85;4.43;;;;;;;15.80;100.00;94001.25;10410158;28;20419;-74
2023/04/24 15:12:51;;;;;;;9.63;5.22;;;;;;;15.34;100.00;93990.81;10404522;28;20764;-75
2023/04/24 15:17:52;;;;;;;9.88;5.78;;;;;;;15.25;100.00;93992.75;10409718;28;20060;-82
2023/04/24 15:22:52;;;;;;;9.73;5.40;;;;;;;15.51;100.00;93991.91;10403062;28;20033;-76
2023/04/24 15:27:52;;;;;;;13.77;6.10;;;;;;;15.78;100.00;93979.88;10412487;28;20338;-78
2023/04/24 15:32:53;;;;;;;11.25;5.60;;;;;;;16.01;100.00;93993.22;10408845;28;20708;-77
2023/04/24 15:37:54;;;;;;;9.53;5.87;;;;;;;16.20;100.00;93979.22;10409732;28;20032;-76
2023/04/24 15:42:54;;;;;;;12.38;6.05;;;;;;;16.34;100.00;93970.84;10407830;28;20057;-77
2023/04/24 15:47:55;;;;;;;12.90;5.87;;;;;;;16.42;100.00;93969.22;10395987;28;20029;-75
2023/04/24 15:52:55;;;;;;;10.32;5.97;;;;;;;16.41;100.00;93957.59;10411566;28;20290;-75
2023/04/24 15:57:56;;;;;;;11.82;6.22;;;;;;;16.32;100.00;93963.06;10415620;28;20509;-78
2023/04/24 16:02:57;;;;;;;9.68;7.70;;;;;;;16.13;100.00;93952.66;10414662;28;20036;-79
2023/04/24 16:08:00;;;;;;;11.40;6.95;;;;;;;15.72;100.00;93948.66;10418940;28;20068;-80
2023/04/24 16:13:02;;;;;;;12.40;7.53;;;;;;;15.59;100.00;93955.09;10415475;28;20414;-77
2023/04/24 16:18:02;;;;;;;8.65;6.43;;;;;;;15.75;100.00;93975.09;10414580;28;20032;-75
2023/04/24 16:23:03;;;;;;;17.42;6.93;;;;;;;15.76;100.00;94006.50;10411016;28;20036;-74
2023/04/24 16:28:03;;;;;;;22.85;9.38;;;;;;;15.31;100.00;94026.66;10408599;28;20395;-77
2023/04/24 16:33:06;;;;;;;11.88;9.07;;;;;;;14.91;100.00;94028.75;10407976;28;20033;-72
2023/04/24 16:38:06;;;;;;;19.90;9.45;;;;;;;14.33;100.00;94040.41;10409538;28;20036;-73
2023/04/24 16:43:07;;;;;;;15.70;8.53;;;;;;;13.92;100.00;94068.53;10408335;28;20392;-74
2023/04/24 16:48:09;;;;;;;12.98;7.97;;;;;;;13.41;100.00;94100.31;10409747;28;20287;-75
2023/04/24 16:53:13;;;;;;;15.40;9.63;;;;;;;13.20;100.00;94140.44;10408183;28;20155;-75
2023/04/24 16:58:13;;;;;;;18.15;11.20;;;;;;;12.67;100.00;94158.00;10410257;28;20079;-75
2023/04/24 17:03:14;;;;;;;17.17;11.93;;;;;;;12.45;100.00;94162.19;10408114;28;20766;-75
2023/04/24 17:08:15;;;;;;;19.95;12.60;;;;;;;12.23;100.00;94170.94;10406200;28;20288;-73
2023/04/24 17:13:21;;;;;;;17.75;12.02;;;;;;;12.12;100.00;94161.44;10408491;28;20033;-83
2023/04/24 17:18:21;;;;;;;20.08;12.63;;;;;;;12.09;100.00;94132.41;10385673;28;20056;-76
2023/04/24 17:23:22;;;;;;;24.97;12.87;;;;;;;12.31;100.00;94108.28;10412932;28;20494;-78
2023/04/24 17:28:25;;;;;;;20.75;13.20;;;;;;;12.25;100.00;94114.88;10409565;28;20284;-73
2023/04/24 17:33:27;;;;;;;24.08;13.82;;;;;;;12.19;100.00;94136.81;10407894;28;20036;-74
2023/04/24 17:38:28;;;;;;;24.10;13.73;;;;;;;11.90;100.00;94162.88;10379437;28;20037;-77
2023/04/24 17:43:31;;;;;;;34.00;15.50;;;;;;;11.83;100.00;94186.66;10406331;28;20166;-77
2023/04/24 17:48:32;;;;;;;23.00;14.68;;;;;;;11.77;100.00;94196.72;10408429;28;21212;-78
2023/04/24 17:53:32;;;;;;;23.55;13.75;;;;;;;11.67;100.00;94204.19;10412407;28;20481;-78
2023/04/24 17:58:34;;;;;;;22.17;14.45;;;;;;;11.76;100.00;94200.53;10408685;28;20975;-76
2023/04/24 18:03:34;;;;;;;19.42;13.15;;;;;;;11.73;100.00;94217.25;10407870;28;20037;-73
2023/04/24 18:08:35;;;;;;;23.65;14.35;;;;;;;11.64;100.00;94219.00;10408391;28;20467;-77
2023/04/24 18:13:37;;;;;;;22.10;13.88;;;;;;;11.65;100.00;94242.13;10410552;28;20033;-81
2023/04/24 18:18:39;;;;;;;27.08;15.02;;;;;;;11.48;100.00;94258.78;10415613;28;20391;-74
2023/04/24 18:23:51;;;;;;;24.27;13.90;;;;;;;11.39;100.00;94257.84;10412581;28;20123;-85
2023/04/24 18:28:51;;;;;;;27.98;17.75;;;;;;;11.56;100.00;94252.75;10404188;28;20037;-82
2023/04/24 18:33:53;;;;;;;27.33;15.77;;;;;;;11.83;100.00;94237.03;10421554;28;20734;-72
2023/04/24 18:38:53;;;;;;;15.25;9.57;;;;;;;11.78;100.00;94213.69;10412422;28;20024;-73
2023/04/24 18:43:56;;;;;;;19.87;12.33;;;;;;;11.36;100.00;94213.50;10416349;28;20821;-79
2023/04/24 18:48:57;;;;;;;29.23;16.20;;;;;;;11.29;100.00;94229.19;10418895;28;20287;-76
2023/04/24 18:54:00;;;;;;;31.80;17.53;;;;;;;11.16;100.00;94235.28;10396559;28;20522;-77
2023/04/24 18:59:01;;;;;;;34.50;18.40;;;;;;;11.07;100.00;94238.59;10400773;28;20379;-77
2023/04/24 19:04:03;;;;;;;30.27;17.23;;;;;;;10.89;100.00;94247.44;10423180;28;20078;-85
2023/04/24 19:09:04;;;;;;;27.10;16.17;;;;;;;10.83;100.00;94243.19;10422305;28;20495;-77
2023/04/24 19:14:06;;;;;;;25.77;15.70;;;;;;;10.85;100.00;94224.91;10418636;28;20387;-83
2023/04/24 19:19:06;;;;;;;21.92;13.25;;;;;;;10.84;100.00;94218.75;10403943;28;20661;-74
2023/04/24 19:24:09;;;;;;;14.70;7.75;;;;;;;10.75;100.00;94213.19;10420739;28;20028;-76
2023/04/24 19:29:10;;;;;;;8.70;4.40;;;;;;;10.60;100.00;94197.22;10401792;28;20090;-71
2023/04/24 19:34:11;;;;;;;4.88;3.10;;;;;;;10.52;100.00;94187.94;10415333;28;20480;-75
2023/04/24 19:39:24;;;;;;;5.22;3.15;;;;;;;10.55;100.00;94170.44;10416342;28;20028;-76
2023/04/24 19:44:25;;;;;;;3.40;2.53;;;;;;;10.49;100.00;94169.69;10421065;28;20037;-80
2023/04/24 19:49:25;;;;;;;4.60;2.30;;;;;;;10.53;100.00;94157.28;10406629;28;20028;-78
2023/04/24 19:54:26;;;;;;;3.00;1.95;;;;;;;10.59;100.00;94166.88;10388560;28;20028;-70
2023/04/24 19:59:26;;;;;;;3.90;2.50;;;;;;;10.56;100.00;94156.72;10417167;28;20028;-72
2023/04/24 20:04:26;;;;;;;7.77;2.63;;;;;;;10.65;100.00;94148.81;10416371;28;20299;-72
2023/04/24 20:09:27;;;;;;;6.63;2.30;;;;;;;10.54;100.00;94156.19;10417003;28;20271;-76
2023/04/24 20:14:27;;;;;;;2.50;1.40;;;;;;;10.46;100.00;94142.59;10415289;28;20013;-72
2023/04/24 20:19:30;;;;;;;3.95;2.13;;;;;;;10.19;100.00;94127.84;10416802;28;20522;-73
2023/04/24 20:24:31;;;;;;;2.25;1.85;;;;;;;10.23;100.00;94132.34;10415274;28;20025;-72
2023/04/24 20:29:31;;;;;;;3.03;1.80;;;;;;;10.31;100.00;94101.38;10414423;28;20491;-73
2023/04/24 20:34:32;;;;;;;3.95;0.80;;;;;;;10.17;100.00;94092.41;10415360;28;20012;-71
2023/04/24 20:39:32;;;;;;;0.70;0.70;;;;;;;10.14;100.00;94084.91;10397165;28;20094;-71
2023/04/24 20:44:33;;;;;;;1.83;0.43;;;;;;;10.03;100.00;94073.47;10414462;28;20094;-72
2023/04/24 20:49:33;;;;;;;2.17;0.85;;;;;;;9.86;100.00;94092.72;10416728;28;20118;-75
2023/04/24 20:54:33;;;;;;;0.90;0.70;;;;;;;9.59;100.00;94096.75;10414378;28;20029;-75
2023/04/24 20:59:34;;;;;;;2.33;0.85;;;;;;;9.45;100.00;94088.56;10415276;28;20454;-71
2023/04/24 21:04:37;;;;;;;2.15;0.50;;;;;;;9.27;100.00;94106.13;10416633;28;20384;-75
2023/04/24 21:09:38;;;;;;;0.68;0.47;;;;;;;9.32;100.00;94116.00;10425416;28;20534;-82
2023/04/24 21:14:38;;;;;;;13.30;1.35;;;;;;;9.47;100.00;94121.25;10418934;28;20029;-82
2023/04/24 21:19:39;;;;;;;1.52;0.75;;;;;;;9.66;100.00;94099.09;10423103;28;20516;-81
2023/04/24 21:24:39;;;;;;;1.77;1.00;;;;;;;9.71;100.00;94110.59;10415921;28;20035;-71
2023/04/24 21:29:40;;;;;;;1.58;1.00;;;;;;;9.83;100.00;94120.94;10420161;28;20170;-72
2023/04/24 21:34:40;;;;;;;2.50;1.20;;;;;;;9.93;100.00;94122.72;10414324;28;20086;-73
2023/04/24 21:39:41;;;;;;;2.22;1.25;;;;;;;9.99;100.00;94113.53;10455357;22;20045;-93
2023/04/24 21:44:41;;;;;;;3.80;1.45;;;;;;;10.07;100.00;94094.13;10449227;22;20136;-72
2023/04/24 21:49:42;;;;;;;2.92;1.65;;;;;;;10.06;100.00;94089.00;10418234;28;20043;-72
2023/04/24 21:54:42;;;;;;;2.50;1.55;;;;;;;9.95;100.00;94082.97;10417918;28;20031;-73
2023/04/24 21:59:43;;;;;;;3.22;2.08;;;;;;;9.96;100.00;94084.56;10422138;28;20025;-72
2023/04/24 22:04:44;;;;;;;3.58;1.83;;;;;;;9.85;100.00;94083.06;10426358;28;20016;-74
2023/04/24 22:09:44;;;;;;;3.35;1.65;;;;;;;9.82;100.00;94081.75;10427433;28;20045;-74
2023/04/24 22:14:45;;;;;;;4.38;1.88;;;;;;;9.87;100.00;94070.19;10427839;28;20036;-73
2023/04/24 22:19:45;;;;;;;5.10;1.60;;;;;;;9.86;100.00;94057.84;10409968;28;20068;-74
2023/04/24 22:24:46;;;;;;;3.17;1.08;;;;;;;9.68;100.00;94054.00;10409767;28;20115;-74
2023/04/24 22:29:47;;;;;;;1.73;1.02;;;;;;;9.64;100.00;94050.28;10426840;28;20142;-73
2023/04/24 22:34:48;;;;;;;4.27;1.00;;;;;;;9.71;100.00;94045.38;10426194;28;20088;-73
2023/04/24 22:39:48;;;;;;;3.75;0.88;;;;;;;9.65;100.00;94038.47;10426929;28;20935;-72
2023/04/24 22:44:48;;;;;;;2.10;0.80;;;;;;;9.81;100.00;94031.88;10425738;28;20755;-73
2023/04/24 22:49:52;;;;;;;2.70;0.82;;;;;;;9.91;100.00;94037.09;10426571;28;20352;-73
2023/04/24 22:54:52;;;;;;;1.92;1.15;;;;;;;10.00;100.00;94033.78;10426457;28;20057;-73
2023/04/24 22:59:53;;;;;;;2.67;1.37;;;;;;;10.06;100.00;94035.31;10426350;28;20107;-72
2023/04/24 23:04:53;;;;;;;2.00;1.40;;;;;;;10.11;100.00;94050.59;10425819;28;20293;-72
2023/04/24 23:09:54;;;;;;;2.63;1.73;;;;;;;10.13;100.00;94073.38;10425545;28;20538;-72